Time;durP1;ratioP1;P1;durP2;ratioP2;P2;SDS_P1;SDS_P2;PMS_P1;PMS_P2;Temp;Humidity;BMP_temperature;BMP_pressure;BME280_temperature;BME280_humidity;BME280_pressure;Samples;Min_cycle;Max_cycle;Signal;HPM_P1;HPM_P2
2022/06/05 00:00:00;;;;;;;;;;;;;;;;;;5032509;28;20402;-63
2022/06/05 00:02:26;;;;;;;;;;;;;;;;;;5032002;28;19921;-63
2022/06/05 00:04:52;;;;;;;;;;;;;;;;;;5032534;28;19925;-63
2022/06/05 00:07:18;;;;;;;;;;;;;;;;;;5034231;28;19947;-63
2022/06/05 00:09:44;;;;;;;;;;;;;;;;;;5036300;28;19921;-63
2022/06/05 00:12:10;;;;;;;;;;;;;;;;;;5035878;28;20004;-63
2022/06/05 00:14:40;;;;;;;;;;;;;;;;;;5036321;28;19925;-63
2022/06/05 00:17:08;;;;;;;;;;;;;;;;;;5035417;28;19922;-63
2022/06/05 00:19:34;;;;;;;;;;;;;;;;;;5035910;28;19932;-63
2022/06/05 00:22:00;;;;;;;;;;;;;;;;;;5036021;28;19928;-63
2022/06/05 00:24:26;;;;;;;;;;;;;;;;;;5035529;28;20367;-63
2022/06/05 00:26:52;;;;;;;;;;;;;;;;;;5036378;28;19927;-63
2022/06/05 00:29:18;;;;;;;;;;;;;;;;;;5036178;28;19925;-63
2022/06/05 00:31:44;;;;;;;;;;;;;;;;;;5035915;28;20215;-63
2022/06/05 00:34:10;;;;;;;;;;;;;;;;;;5035894;28;19925;-63
2022/06/05 00:36:36;;;;;;;;;;;;;;;;;;5036170;28;20011;-63
2022/06/05 00:39:02;;;;;;;;;;;;;;;;;;5035666;28;19980;-63
2022/06/05 00:41:28;;;;;;;;;;;;;;;;;;5035712;28;19925;-63
2022/06/05 00:43:54;;;;;;;;;;;;;;;;;;5067746;28;19964;-63
2022/06/05 00:46:20;;;;;;;;;;;;;;;;;;5035236;28;19991;-63
2022/06/05 00:48:46;;;;;;;;;;;;;;;;;;5036077;28;19921;-63
2022/06/05 00:51:12;;;;;;;;;;;;;;;;;;5035451;28;19944;-63
2022/06/05 00:53:38;;;;;;;;;;;;;;;;;;5035643;28;19929;-63
2022/06/05 00:56:04;;;;;;;;;;;;;;;;;;5036001;28;19921;-63
2022/06/05 00:58:30;;;;;;;;;;;;;;;;;;5036016;28;19921;-63
2022/06/05 01:00:56;;;;;;;;;;;;;;;;;;5034996;28;19957;-63
2022/06/05 01:03:22;;;;;;;;;;;;;;;;;;5036678;28;19921;-63
2022/06/05 01:05:48;;;;;;;;;;;;;;;;;;5036085;28;19921;-63
2022/06/05 01:08:14;;;;;;;;;;;;;;;;;;5035305;28;20008;-63
2022/06/05 01:10:40;;;;;;;;;;;;;;;;;;5035750;28;19921;-63
2022/06/05 01:13:06;;;;;;;;;;;;;;;;;;5035669;28;19927;-63
2022/06/05 01:15:32;;;;;;;;;;;;;;;;;;5035015;28;19952;-63
2022/06/05 01:17:57;;;;;;;;;;;;;;;;;;5035070;28;19927;-63
2022/06/05 01:20:23;;;;;;;;;;;;;;;;;;5034613;28;19925;-63
2022/06/05 01:22:49;;;;;;;;;;;;;;;;;;5034471;28;19963;-63
2022/06/05 01:25:16;;;;;;;;;;;;;;;;;;5032999;28;19925;-63
2022/06/05 01:27:42;;;;;;;;;;;;;;;;;;5015189;28;20434;-63
2022/06/05 01:30:09;;;;;;;;;;;;;;;;;;5014761;28;19925;-63
2022/06/05 01:32:35;;;;;;;;;;;;;;;;;;5014600;28;19922;-63
2022/06/05 01:35:01;;;;;;;;;;;;;;;;;;5015026;28;19921;-63
2022/06/05 01:37:26;;;;;;;;;;;;;;;;;;5014766;28;19922;-63
2022/06/05 01:39:52;;;;;;;;;;;;;;;;;;5013710;28;19933;-63
2022/06/05 01:42:18;;;;;;;;;;;;;;;;;;5014849;28;20016;-63
2022/06/05 01:44:44;;;;;;;;;;;;;;;;;;5014588;28;19928;-63
2022/06/05 01:47:10;;;;;;;;;;;;;;;;;;5014238;28;19960;-63
2022/06/05 01:49:36;;;;;;;;;;;;;;;;;;5014259;28;19928;-63
2022/06/05 01:52:02;;;;;;;;;;;;;;;;;;5014198;28;19925;-63
2022/06/05 01:54:28;;;;;;;;;;;;;;;;;;5014157;28;20299;-63
2022/06/05 01:56:54;;;;;;;;;;;;;;;;;;5014416;28;20055;-63
2022/06/05 01:59:20;;;;;;;;;;;;;;;;;;5014495;28;19926;-63
2022/06/05 02:01:47;;;;;;;;;;;;;;;;;;5013845;28;19928;-63
2022/06/05 02:04:14;;;;;;;;;;;;;;;;;;5014677;28;19925;-63
2022/06/05 02:06:39;;;;;;;;;;;;;;;;;;5012920;28;19921;-63
2022/06/05 02:09:05;;;;;;;;;;;;;;;;;;5013435;28;20024;-63
2022/06/05 02:11:31;;;;;;;;;;;;;;;;;;5012326;28;19925;-63
2022/06/05 02:13:57;;;;;;;;;;;;;;;;;;5014383;28;19928;-63
2022/06/05 02:16:23;;;;;;;;;;;;;;;;;;5013671;28;19925;-63
2022/06/05 02:18:50;;;;;;;;;;;;;;;;;;5013900;28;19929;-63
2022/06/05 02:21:16;;;;;;;;;;;;;;;;;;5014049;28;20338;-63
2022/06/05 02:23:42;;;;;;;;;;;;;;;;;;5013840;28;19933;-63
2022/06/05 02:26:08;;;;;;;;;;;;;;;;;;5022998;28;19921;-63
2022/06/05 02:28:34;;;;;;;;;;;;;;;;;;5033661;28;20019;-63
2022/06/05 02:31:00;;;;;;;;;;;;;;;;;;5033059;28;20040;-63
2022/06/05 02:33:26;;;;;;;;;;;;;;;;;;5033275;28;19959;-63
2022/06/05 02:35:52;;;;;;;;;;;;;;;;;;5033247;28;19925;-63
2022/06/05 02:38:18;;;;;;;;;;;;;;;;;;5032846;28;20372;-63
2022/06/05 02:40:44;;;;;;;;;;;;;;;;;;5033420;28;19925;-63
2022/06/05 02:43:10;;;;;;;;;;;;;;;;;;5033272;28;19925;-63
2022/06/05 02:45:36;;;;;;;;;;;;;;;;;;5032835;28;20407;-63
2022/06/05 02:48:02;;;;;;;;;;;;;;;;;;5033286;28;19921;-63
2022/06/05 02:50:28;;;;;;;;;;;;;;;;;;5033165;28;19921;-63
2022/06/05 02:52:53;;;;;;;;;;;;;;;;;;5032920;28;20011;-63
2022/06/05 02:55:20;;;;;;;;;;;;;;;;;;5033339;28;19921;-63
2022/06/05 02:57:46;;;;;;;;;;;;;;;;;;5033655;28;19989;-63
2022/06/05 03:00:12;;;;;;;;;;;;;;;;;;5064835;28;20003;-63
2022/06/05 03:05:22;;;;;;;;;;;;;;;;;;5032943;28;20620;-63
2022/06/05 03:07:49;;;;;;;;;;;;;;;;;;5032456;28;19925;-63
2022/06/05 03:10:15;;;;;;;;;;;;;;;;;;5032958;28;19966;-63
2022/06/05 03:12:41;;;;;;;;;;;;;;;;;;5032997;28;19921;-63
2022/06/05 03:15:07;;;;;;;;;;;;;;;;;;5031975;28;19968;-63
2022/06/05 03:17:33;;;;;;;;;;;;;;;;;;5032836;28;20008;-63
2022/06/05 03:19:59;;;;;;;;;;;;;;;;;;5032820;28;20019;-63
2022/06/05 03:22:25;;;;;;;;;;;;;;;;;;5032588;28;20012;-63
2022/06/05 03:24:51;;;;;;;;;;;;;;;;;;5032853;28;20416;-63
2022/06/05 03:27:16;;;;;;;;;;;;;;;;;;5014695;28;19921;-63
2022/06/05 03:29:43;;;;;;;;;;;;;;;;;;5012704;28;20043;-63
2022/06/05 03:32:09;;;;;;;;;;;;;;;;;;5012964;28;19925;-63
2022/06/05 03:34:34;;;;;;;;;;;;;;;;;;5013103;28;20020;-63
2022/06/05 03:37:00;;;;;;;;;;;;;;;;;;5013151;28;20009;-63
2022/06/05 03:39:26;;;;;;;;;;;;;;;;;;5012977;28;19932;-63
2022/06/05 03:41:52;;;;;;;;;;;;;;;;;;5014225;28;19929;-63
2022/06/05 03:44:19;;;;;;;;;;;;;;;;;;5016429;28;20132;-63
2022/06/05 03:46:45;;;;;;;;;;;;;;;;;;5016800;28;19925;-63
2022/06/05 03:49:10;;;;;;;;;;;;;;;;;;5016596;28;20272;-63
2022/06/05 03:51:36;;;;;;;;;;;;;;;;;;5016147;28;19928;-63
2022/06/05 03:54:02;;;;;;;;;;;;;;;;;;5016491;28;19925;-63
2022/06/05 03:56:28;;;;;;;;;;;;;;;;;;5017248;28;19925;-63
2022/06/05 03:58:54;;;;;;;;;;;;;;;;;;5016014;28;19969;-63
2022/06/05 04:01:20;;;;;;;;;;;;;;;;;;5016873;28;20380;-63
2022/06/05 04:03:46;;;;;;;;;;;;;;;;;;5016767;28;20012;-63
2022/06/05 04:06:12;;;;;;;;;;;;;;;;;;5015907;28;20020;-63
2022/06/05 04:08:38;;;;;;;;;;;;;;;;;;5017153;28;19925;-63
2022/06/05 04:11:04;;;;;;;;;;;;;;;;;;5016197;28;19922;-63
2022/06/05 04:13:30;;;;;;;;;;;;;;;;;;5015787;28;19968;-63
2022/06/05 04:15:56;;;;;;;;;;;;;;;;;;5016494;28;19975;-63
2022/06/05 04:18:22;;;;;;;;;;;;;;;;;;5016145;28;19929;-63
2022/06/05 04:20:48;;;;;;;;;;;;;;;;;;5015708;28;19935;-63
2022/06/05 04:23:14;;;;;;;;;;;;;;;;;;5016023;28;19945;-63
2022/06/05 04:25:40;;;;;;;;;;;;;;;;;;5020997;28;19979;-63
2022/06/05 04:28:07;;;;;;;;;;;;;;;;;;5035113;28;19929;-63
2022/06/05 04:30:33;;;;;;;;;;;;;;;;;;5035576;28;20328;-63
2022/06/05 04:32:59;;;;;;;;;;;;;;;;;;5067438;28;19972;-63
2022/06/05 04:35:25;;;;;;;;;;;;;;;;;;5035517;28;20004;-63
2022/06/05 04:37:51;;;;;;;;;;;;;;;;;;5035701;28;20327;-63
2022/06/05 04:40:17;;;;;;;;;;;;;;;;;;5034819;28;19952;-63
2022/06/05 04:42:43;;;;;;;;;;;;;;;;;;5033248;28;19966;-63
2022/06/05 04:45:09;;;;;;;;;;;;;;;;;;5067517;28;19925;-63
2022/06/05 04:47:35;;;;;;;;;;;;;;;;;;5035757;28;19929;-63
2022/06/05 04:50:01;;;;;;;;;;;;;;;;;;5035200;28;19921;-63
2022/06/05 04:52:27;;;;;;;;;;;;;;;;;;5034793;28;19922;-63
2022/06/05 04:54:53;;;;;;;;;;;;;;;;;;5034339;28;20311;-63
2022/06/05 04:57:19;;;;;;;;;;;;;;;;;;5035731;28;19925;-63
2022/06/05 04:59:45;;;;;;;;;;;;;;;;;;5035014;28;19933;-63
2022/06/05 05:02:11;;;;;;;;;;;;;;;;;;5035326;28;19921;-63
2022/06/05 05:04:37;;;;;;;;;;;;;;;;;;5035683;28;19959;-63
2022/06/05 05:07:03;;;;;;;;;;;;;;;;;;5034888;28;19933;-63
2022/06/05 05:09:29;;;;;;;;;;;;;;;;;;5035025;28;19933;-63
2022/06/05 05:11:55;;;;;;;;;;;;;;;;;;5035125;28;20104;-63
2022/06/05 05:14:21;;;;;;;;;;;;;;;;;;5034693;28;20303;-63
2022/06/05 05:16:47;;;;;;;;;;;;;;;;;;5035266;28;19936;-63
2022/06/05 05:19:13;;;;;;;;;;;;;;;;;;5035498;28;19925;-63
2022/06/05 05:21:39;;;;;;;;;;;;;;;;;;5034418;28;19940;-63
2022/06/05 05:24:07;;;;;;;;;;;;;;;;;;5035025;28;19928;-63
2022/06/05 05:26:33;;;;;;;;;;;;;;;;;;5022117;28;19925;-63
2022/06/05 05:28:59;;;;;;;;;;;;;;;;;;5014832;28;20275;-63
2022/06/05 05:31:25;;;;;;;;;;;;;;;;;;5014955;28;19944;-63
2022/06/05 05:33:51;;;;;;;;;;;;;;;;;;5015036;28;19922;-63
2022/06/05 05:36:18;;;;;;;;;;;;;;;;;;5014393;28;20020;-63
2022/06/05 05:42:04;;;;;;;;;;;;;;;;;;5014863;28;19929;-63
2022/06/05 05:44:16;;;;;;;;;;;;;;;;;;5014551;28;20276;-63
2022/06/05 05:46:43;;;;;;;;;;;;;;;;;;5013507;28;20237;-63
2022/06/05 05:49:09;;;;;;;;;;;;;;;;;;5014428;28;19952;-63
2022/06/05 05:51:34;;;;;;;;;;;;;;;;;;5014297;28;19926;-63
2022/06/05 05:54:01;;;;;;;;;;;;;;;;;;5014538;28;20415;-63
2022/06/05 05:56:26;;;;;;;;;;;;;;;;;;5014234;28;19922;-63
2022/06/05 05:58:52;;;;;;;;;;;;;;;;;;5013713;28;19988;-63
2022/06/05 06:01:18;;;;;;;;;;;;;;;;;;5014354;28;19925;-63
2022/06/05 06:03:44;;;;;;;;;;;;;;;;;;5014598;28;19925;-63
2022/06/05 06:06:10;;;;;;;;;;;;;;;;;;5013466;28;19967;-63
2022/06/05 06:08:36;;;;;;;;;;;;;;;;;;5015165;28;19971;-63
2022/06/05 06:11:02;;;;;;;;;;;;;;;;;;5014700;28;20064;-63
2022/06/05 06:13:29;;;;;;;;;;;;;;;;;;5014578;28;19929;-63
2022/06/05 06:15:55;;;;;;;;;;;;;;;;;;5015091;28;19922;-63
2022/06/05 06:18:21;;;;;;;;;;;;;;;;;;5014985;28;20405;-63
2022/06/05 06:20:47;;;;;;;;;;;;;;;;;;5014638;28;19964;-63
2022/06/05 06:23:14;;;;;;;;;;;;;;;;;;5015224;28;19921;-63
2022/06/05 06:25:40;;;;;;;;;;;;;;;;;;5020417;28;19921;-63
2022/06/05 06:28:06;;;;;;;;;;;;;;;;;;5034208;28;19921;-63
2022/06/05 06:30:31;;;;;;;;;;;;;;;;;;5034443;28;19925;-63
2022/06/05 06:32:57;;;;;;;;;;;;;;;;;;5034672;28;19927;-63
2022/06/05 06:35:23;;;;;;;;;;;;;;;;;;5033793;28;20012;-63
2022/06/05 06:37:49;;;;;;;;;;;;;;;;;;5034617;28;20405;-63
2022/06/05 06:40:15;;;;;;;;;;;;;;;;;;5034419;28;19929;-63
2022/06/05 06:42:41;;;;;;;;;;;;;;;;;;5034005;28;19932;-63
2022/06/05 06:45:07;;;;;;;;;;;;;;;;;;5034286;28;19921;-63
2022/06/05 06:47:33;;;;;;;;;;;;;;;;;;5034424;28;19928;-63
2022/06/05 06:49:59;;;;;;;;;;;;;;;;;;5034210;28;19987;-63
2022/06/05 06:52:25;;;;;;;;;;;;;;;;;;5034049;28;19928;-63
2022/06/05 06:54:51;;;;;;;;;;;;;;;;;;5034452;28;19921;-63
2022/06/05 06:57:17;;;;;;;;;;;;;;;;;;5033733;28;20368;-63
2022/06/05 06:59:43;;;;;;;;;;;;;;;;;;5034333;28;19929;-63
2022/06/05 07:02:09;;;;;;;;;;;;;;;;;;5034279;28;19931;-63
2022/06/05 07:04:35;;;;;;;;;;;;;;;;;;5033640;28;19924;-63
2022/06/05 07:07:01;;;;;;;;;;;;;;;;;;5034116;28;19974;-63
2022/06/05 07:09:27;;;;;;;;;;;;;;;;;;5034009;28;19944;-63
2022/06/05 07:11:53;;;;;;;;;;;;;;;;;;5032918;28;19925;-63
2022/06/05 07:14:20;;;;;;;;;;;;;;;;;;5033963;28;19925;-63
2022/06/05 07:16:46;;;;;;;;;;;;;;;;;;5034228;28;19925;-63
2022/06/05 07:19:12;;;;;;;;;;;;;;;;;;5032933;28;20295;-63
2022/06/05 07:21:38;;;;;;;;;;;;;;;;;;5034633;28;19932;-63
2022/06/05 07:24:04;;;;;;;;;;;;;;;;;;5034014;28;19920;-63
2022/06/05 07:26:29;;;;;;;;;;;;;;;;;;5021830;28;19953;-63
2022/06/05 07:28:56;;;;;;;;;;;;;;;;;;5014240;28;20495;-63
2022/06/05 07:31:22;;;;;;;;;;;;;;;;;;5014254;28;19932;-63
2022/06/05 07:33:48;;;;;;;;;;;;;;;;;;5014408;28;19968;-63
2022/06/05 07:36:14;;;;;;;;;;;;;;;;;;5014172;28;19929;-63
2022/06/05 07:38:40;;;;;;;;;;;;;;;;;;5014415;28;19953;-64
2022/06/05 07:41:06;;;;;;;;;;;;;;;;;;5013509;28;19926;-64
2022/06/05 07:43:32;;;;;;;;;;;;;;;;;;5014156;28;19933;-64
2022/06/05 07:45:58;;;;;;;;;;;;;;;;;;5012878;28;20292;-63
2022/06/05 07:48:24;;;;;;;;;;;;;;;;;;5013390;28;20008;-63
2022/06/05 07:56:23;;;;;;;;;;;;;;;;;;5013152;28;20370;-63
2022/06/05 07:58:49;;;;;;;;;;;;;;;;;;5014028;28;20016;-64
2022/06/05 08:01:16;;;;;;;;;;;;;;;;;;5013848;28;19925;-64
2022/06/05 08:03:42;;;;;;;;;;;;;;;;;;5013466;28;19925;-64
2022/06/05 08:06:08;;;;;;;;;;;;;;;;;;5014112;28;19932;-64
2022/06/05 08:08:35;;;;;;;;;;;;;;;;;;5013572;28;19922;-64
2022/06/05 08:11:01;;;;;;;;;;;;;;;;;;5013413;28;19944;-64
2022/06/05 08:13:28;;;;;;;;;;;;;;;;;;5013691;28;19928;-64
2022/06/05 08:15:54;;;;;;;;;;;;;;;;;;5013862;28;19928;-64
2022/06/05 08:18:19;;;;;;;;;;;;;;;;;;5013266;28;20052;-64
2022/06/05 08:20:45;;;;;;;;;;;;;;;;;;5014129;28;19964;-64
2022/06/05 08:23:11;;;;;;;;;;;;;;;;;;5013808;28;19976;-64
2022/06/05 08:25:38;;;;;;;;;;;;;;;;;;5018154;28;19969;-64
2022/06/05 08:28:04;;;;;;;;;;;;;;;;;;5034980;28;19921;-64
2022/06/05 08:30:31;;;;;;;;;;;;;;;;;;5036769;28;19971;-64
2022/06/05 08:32:57;;;;;;;;;;;;;;;;;;5036375;28;20008;-64
2022/06/05 08:35:23;;;;;;;;;;;;;;;;;;5036935;28;19979;-64
2022/06/05 08:43:18;;;;;;;;;;;;;;;;;;5036381;28;19929;-64
2022/06/05 08:45:44;;;;;;;;;;;;;;;;;;5036601;28;19921;-64
2022/06/05 08:48:10;;;;;;;;;;;;;;;;;;5036009;28;19929;-64
2022/06/05 08:50:36;;;;;;;;;;;;;;;;;;5036414;28;19925;-64
2022/06/05 08:53:03;;;;;;;;;;;;;;;;;;5036145;28;20371;-64
2022/06/05 08:55:29;;;;;;;;;;;;;;;;;;5036080;28;19925;-64
2022/06/05 08:57:56;;;;;;;;;;;;;;;;;;5036455;28;19921;-64
2022/06/05 09:00:23;;;;;;;;;;;;;;;;;;5036202;28;19936;-64
2022/06/05 09:02:50;;;;;;;;;;;;;;;;;;5035885;28;19925;-64
2022/06/05 09:05:17;;;;;;;;;;;;;;;;;;5036363;28;20567;-64
2022/06/05 09:07:43;;;;;;;;;;;;;;;;;;5036115;28;19921;-64
2022/06/05 09:10:09;;;;;;;;;;;;;;;;;;5035724;28;19928;-64
2022/06/05 09:12:35;;;;;;;;;;;;;;;;;;5035919;28;20041;-64
2022/06/05 09:15:00;;;;;;;;;;;;;;;;;;5036177;28;19979;-64
2022/06/05 09:17:26;;;;;;;;;;;;;;;;;;5035759;28;19925;-64
2022/06/05 09:19:52;;;;;;;;;;;;;;;;;;5035788;28;20012;-64
2022/06/05 09:22:18;;;;;;;;;;;;;;;;;;5036684;28;19925;-64
2022/06/05 09:24:45;;;;;;;;;;;;;;;;;;5035149;28;19921;-64
2022/06/05 09:27:11;;;;;;;;;;;;;;;;;;5018220;28;19921;-64
2022/06/05 09:29:37;;;;;;;;;;;;;;;;;;5016200;28;19921;-64
2022/06/05 09:32:03;;;;;;;;;;;;;;;;;;5015103;28;20001;-64
2022/06/05 09:34:29;;;;;;;;;;;;;;;;;;5015989;28;19929;-64
2022/06/05 09:36:55;;;;;;;;;;;;;;;;;;5015632;28;19921;-64
2022/06/05 09:39:21;;;;;;;;;;;;;;;;;;5014489;28;19926;-64
2022/06/05 09:41:47;;;;;;;;;;;;;;;;;;5015843;28;19936;-64
2022/06/05 09:44:13;;;;;;;;;;;;;;;;;;5015434;28;19948;-64
2022/06/05 09:46:40;;;;;;;;;;;;;;;;;;5015231;28;19932;-64
2022/06/05 09:49:06;;;;;;;;;;;;;;;;;;5016061;28;19929;-64
2022/06/05 09:51:32;;;;;;;;;;;;;;;;;;5015554;28;20563;-64
2022/06/05 09:53:58;;;;;;;;;;;;;;;;;;5014909;28;19922;-64
2022/06/05 09:56:24;;;;;;;;;;;;;;;;;;5015752;28;19926;-64
2022/06/05 09:58:51;;;;;;;;;;;;;;;;;;5015701;28;19961;-64
2022/06/05 10:01:17;;;;;;;;;;;;;;;;;;5014709;28;19979;-64
2022/06/05 10:03:43;;;;;;;;;;;;;;;;;;5015079;28;19929;-64
2022/06/05 10:06:10;;;;;;;;;;;;;;;;;;5015423;28;19928;-64
2022/06/05 10:08:36;;;;;;;;;;;;;;;;;;5014629;28;19968;-64
2022/06/05 10:11:05;;;;;;;;;;;;;;;;;;5014980;28;19972;-64
2022/06/05 10:13:31;;;;;;;;;;;;;;;;;;5015266;28;19928;-64
2022/06/05 10:16:02;;;;;;;;;;;;;;;;;;5014101;28;19927;-64
2022/06/05 10:18:28;;;;;;;;;;;;;;;;;;5015274;28;20005;-64
2022/06/05 10:20:56;;;;;;;;;;;;;;;;;;5014681;28;20051;-64
2022/06/05 10:23:22;;;;;;;;;;;;;;;;;;5012704;28;20391;-64
2022/06/05 10:25:48;;;;;;;;;;;;;;;;;;5021173;28;20474;-64
2022/06/05 10:28:14;;;;;;;;;;;;;;;;;;5034681;28;20078;-64
2022/06/05 10:30:40;;;;;;;;;;;;;;;;;;5034062;28;19925;-64
2022/06/05 10:33:06;;;;;;;;;;;;;;;;;;5034381;28;20023;-64
2022/06/05 10:35:34;;;;;;;;;;;;;;;;;;5034851;28;19921;-64
2022/06/05 10:38:00;;;;;;;;;;;;;;;;;;5033655;28;19925;-64
2022/06/05 10:40:26;;;;;;;;;;;;;;;;;;5033888;28;19925;-64
2022/06/05 10:42:52;;;;;;;;;;;;;;;;;;5033950;28;20316;-64
2022/06/05 10:45:18;;;;;;;;;;;;;;;;;;5034102;28;19921;-64
2022/06/05 10:47:44;;;;;;;;;;;;;;;;;;5033917;28;19928;-64
2022/06/05 10:50:10;;;;;;;;;;;;;;;;;;5034085;28;19920;-64
2022/06/05 10:52:36;;;;;;;;;;;;;;;;;;5033024;28;19921;-64
2022/06/05 10:55:02;;;;;;;;;;;;;;;;;;5065609;28;19943;-64
2022/06/05 10:57:28;;;;;;;;;;;;;;;;;;5034190;28;19928;-64
2022/06/05 10:59:54;;;;;;;;;;;;;;;;;;5033903;28;19925;-64
2022/06/05 11:02:20;;;;;;;;;;;;;;;;;;5033788;28;19925;-64
2022/06/05 11:04:46;;;;;;;;;;;;;;;;;;5034200;28;19932;-64
2022/06/05 11:07:12;;;;;;;;;;;;;;;;;;5033852;28;19921;-64
2022/06/05 11:09:38;;;;;;;;;;;;;;;;;;5033017;28;19940;-64
2022/06/05 11:14:49;;;;;;;;;;;;;;;;;;5033480;28;20276;-64
2022/06/05 11:17:15;;;;;;;;;;;;;;;;;;5065067;28;20011;-64
2022/06/05 11:19:41;;;;;;;;;;;;;;;;;;5033463;28;20399;-64
2022/06/05 11:22:07;;;;;;;;;;;;;;;;;;5033379;28;19925;-64
2022/06/05 11:24:34;;;;;;;;;;;;;;;;;;5033106;28;19921;-64
2022/06/05 11:27:00;;;;;;;;;;;;;;;;;;5017928;28;19922;-64
2022/06/05 11:29:26;;;;;;;;;;;;;;;;;;5013985;28;19932;-64
2022/06/05 11:31:52;;;;;;;;;;;;;;;;;;5013714;28;20785;-64
2022/06/05 11:34:18;;;;;;;;;;;;;;;;;;5013889;28;19967;-64
2022/06/05 11:36:44;;;;;;;;;;;;;;;;;;5012320;28;19921;-64
2022/06/05 11:39:10;;;;;;;;;;;;;;;;;;5013384;28;19925;-64
2022/06/05 11:41:36;;;;;;;;;;;;;;;;;;5013713;28;19932;-64
2022/06/05 11:44:03;;;;;;;;;;;;;;;;;;5013789;28;19973;-64
2022/06/05 11:46:30;;;;;;;;;;;;;;;;;;5013849;28;19933;-64
2022/06/05 11:48:55;;;;;;;;;;;;;;;;;;5014189;28;19929;-64
2022/06/05 11:51:22;;;;;;;;;;;;;;;;;;5013384;28;19922;-64
2022/06/05 11:53:48;;;;;;;;;;;;;;;;;;5013132;28;19945;-64
2022/06/05 11:56:14;;;;;;;;;;;;;;;;;;5013821;28;20366;-64
2022/06/05 11:58:40;;;;;;;;;;;;;;;;;;5014042;28;19973;-64
2022/06/05 12:01:06;;;;;;;;;;;;;;;;;;5012699;28;19928;-64
2022/06/05 12:03:32;;;;;;;;;;;;;;;;;;5015823;28;19922;-64
2022/06/05 12:05:58;;;;;;;;;;;;;;;;;;5017372;28;19932;-64
2022/06/05 12:08:24;;;;;;;;;;;;;;;;;;5016758;28;19921;-64
2022/06/05 12:10:50;;;;;;;;;;;;;;;;;;5017400;28;19937;-64
2022/06/05 12:13:15;;;;;;;;;;;;;;;;;;5017498;28;20016;-64
2022/06/05 12:15:41;;;;;;;;;;;;;;;;;;5016467;28;19928;-64
2022/06/05 12:18:07;;;;;;;;;;;;;;;;;;5017463;28;20440;-64
2022/06/05 12:20:33;;;;;;;;;;;;;;;;;;5017149;28;20044;-64
2022/06/05 12:22:59;;;;;;;;;;;;;;;;;;5016741;28;19948;-64
2022/06/05 12:25:25;;;;;;;;;;;;;;;;;;5019868;28;19922;-64
2022/06/05 12:27:52;;;;;;;;;;;;;;;;;;5036812;28;19921;-64
2022/06/05 12:30:18;;;;;;;;;;;;;;;;;;5036406;28;20433;-64
2022/06/05 12:32:44;;;;;;;;;;;;;;;;;;5036596;28;20007;-64
2022/06/05 12:35:10;;;;;;;;;;;;;;;;;;5036828;28;20022;-64
2022/06/05 12:37:36;;;;;;;;;;;;;;;;;;5035881;28;19925;-64
2022/06/05 12:40:03;;;;;;;;;;;;;;;;;;5036042;28;19936;-64
2022/06/05 12:42:29;;;;;;;;;;;;;;;;;;5035258;28;20420;-64
2022/06/05 12:44:55;;;;;;;;;;;;;;;;;;5035993;28;19921;-64
2022/06/05 12:47:21;;;;;;;;;;;;;;;;;;5036463;28;19924;-64
2022/06/05 12:49:47;;;;;;;;;;;;;;;;;;5036752;28;19925;-64
2022/06/05 12:52:13;;;;;;;;;;;;;;;;;;5035726;28;19925;-64
2022/06/05 12:54:39;;;;;;;;;;;;;;;;;;5036310;28;19956;-64
2022/06/05 12:57:05;;;;;;;;;;;;;;;;;;5036153;28;19964;-64
2022/06/05 12:59:31;;;;;;;;;;;;;;;;;;5035856;28;19925;-64
2022/06/05 13:01:58;;;;;;;;;;;;;;;;;;5036512;28;19928;-64
2022/06/05 13:04:24;;;;;;;;;;;;;;;;;;5036413;28;20314;-64
2022/06/05 13:06:51;;;;;;;;;;;;;;;;;;5067867;28;19961;-64
2022/06/05 13:09:17;;;;;;;;;;;;;;;;;;5035925;28;20369;-64
2022/06/05 13:11:43;;;;;;;;;;;;;;;;;;5036366;28;19975;-64
2022/06/05 13:14:09;;;;;;;;;;;;;;;;;;5034602;28;19921;-64
2022/06/05 13:16:35;;;;;;;;;;;;;;;;;;5035928;28;19928;-64
2022/06/05 13:19:02;;;;;;;;;;;;;;;;;;5036047;28;19933;-64
2022/06/05 13:21:28;;;;;;;;;;;;;;;;;;5034749;28;19928;-64
2022/06/05 13:23:54;;;;;;;;;;;;;;;;;;5036002;28;19921;-64
2022/06/05 13:26:20;;;;;;;;;;;;;;;;;;5025412;28;19929;-64
2022/06/05 13:28:46;;;;;;;;;;;;;;;;;;5013746;28;19921;-64
2022/06/05 13:31:12;;;;;;;;;;;;;;;;;;5015601;28;19964;-64
2022/06/05 13:33:38;;;;;;;;;;;;;;;;;;5015287;28;19925;-64
2022/06/05 13:36:04;;;;;;;;;;;;;;;;;;5014807;28;19932;-64
2022/06/05 13:38:30;;;;;;;;;;;;;;;;;;5014905;28;20017;-64
2022/06/05 13:40:56;;;;;;;;;;;;;;;;;;5014778;28;20016;-64
2022/06/05 13:43:22;;;;;;;;;;;;;;;;;;5014398;28;19921;-64
2022/06/05 13:45:48;;;;;;;;;;;;;;;;;;4997436;28;19921;-64
2022/06/05 13:48:14;;;;;;;;;;;;;;;;;;5015271;28;19921;-64
2022/06/05 13:50:40;;;;;;;;;;;;;;;;;;5014529;28;19936;-64
2022/06/05 13:53:06;;;;;;;;;;;;;;;;;;5014646;28;19921;-64
2022/06/05 13:55:32;;;;;;;;;;;;;;;;;;5014987;28;19928;-64
2022/06/05 13:57:58;;;;;;;;;;;;;;;;;;5013011;28;19933;-64
2022/06/05 14:00:23;;;;;;;;;;;;;;;;;;5014621;28;20019;-64
2022/06/05 14:02:49;;;;;;;;;;;;;;;;;;5014749;28;19972;-64
2022/06/05 14:05:15;;;;;;;;;;;;;;;;;;5014121;28;19949;-64
2022/06/05 14:07:41;;;;;;;;;;;;;;;;;;5014715;28;19928;-64
2022/06/05 14:10:08;;;;;;;;;;;;;;;;;;5014395;28;20000;-64
2022/06/05 14:12:34;;;;;;;;;;;;;;;;;;5014026;28;19928;-64
2022/06/05 14:15:00;;;;;;;;;;;;;;;;;;5014670;28;19921;-64
2022/06/05 14:17:26;;;;;;;;;;;;;;;;;;5015135;28;19964;-64
2022/06/05 14:19:52;;;;;;;;;;;;;;;;;;5014575;28;20011;-64
2022/06/05 14:22:18;;;;;;;;;;;;;;;;;;5014514;28;19921;-64
2022/06/05 14:24:44;;;;;;;;;;;;;;;;;;5014875;28;19949;-64
2022/06/05 14:27:10;;;;;;;;;;;;;;;;;;5031826;28;19948;-64
2022/06/05 14:29:37;;;;;;;;;;;;;;;;;;5033594;28;19921;-64
2022/06/05 14:32:03;;;;;;;;;;;;;;;;;;5034205;28;19975;-64
2022/06/05 14:34:29;;;;;;;;;;;;;;;;;;5034326;28;19921;-64
2022/06/05 14:36:56;;;;;;;;;;;;;;;;;;5033790;28;19952;-64
2022/06/05 14:39:22;;;;;;;;;;;;;;;;;;5033964;28;19982;-64
2022/06/05 14:41:48;;;;;;;;;;;;;;;;;;5034076;28;20290;-64
2022/06/05 14:44:14;;;;;;;;;;;;;;;;;;5033852;28;19921;-64
2022/06/05 14:46:40;;;;;;;;;;;;;;;;;;5034677;28;19921;-64
2022/06/05 14:49:07;;;;;;;;;;;;;;;;;;5034405;28;19928;-64
2022/06/05 14:51:33;;;;;;;;;;;;;;;;;;5033538;28;19925;-64
2022/06/05 14:53:59;;;;;;;;;;;;;;;;;;5034144;28;20007;-64
2022/06/05 14:59:09;;;;;;;;;;;;;;;;;;5033129;28;20310;-64
2022/06/05 15:01:35;;;;;;;;;;;;;;;;;;5034089;28;20434;-64
2022/06/05 15:04:01;;;;;;;;;;;;;;;;;;5034345;28;19921;-64
2022/06/05 15:06:27;;;;;;;;;;;;;;;;;;5033301;28;19922;-64
2022/06/05 15:08:54;;;;;;;;;;;;;;;;;;5034175;28;19921;-64
2022/06/05 15:11:20;;;;;;;;;;;;;;;;;;5034145;28;19931;-64
2022/06/05 15:13:46;;;;;;;;;;;;;;;;;;5033707;28;19963;-64
2022/06/05 15:16:13;;;;;;;;;;;;;;;;;;5034153;28;19925;-64
2022/06/05 15:18:39;;;;;;;;;;;;;;;;;;5033575;28;19929;-64
2022/06/05 15:21:05;;;;;;;;;;;;;;;;;;5033422;28;20008;-64
2022/06/05 15:23:31;;;;;;;;;;;;;;;;;;5033965;28;19925;-64
2022/06/05 15:25:57;;;;;;;;;;;;;;;;;;5026631;28;19937;-64
2022/06/05 15:28:23;;;;;;;;;;;;;;;;;;5013744;28;19922;-64
2022/06/05 15:30:49;;;;;;;;;;;;;;;;;;5014180;28;20210;-64
2022/06/05 15:33:17;;;;;;;;;;;;;;;;;;5014294;28;19921;-64
2022/06/05 15:35:43;;;;;;;;;;;;;;;;;;5013577;28;20015;-64
2022/06/05 15:38:09;;;;;;;;;;;;;;;;;;5015476;28;20026;-64
2022/06/05 15:40:35;;;;;;;;;;;;;;;;;;5017969;28;19925;-64
2022/06/05 15:43:01;;;;;;;;;;;;;;;;;;5017383;28;19925;-64
2022/06/05 15:45:28;;;;;;;;;;;;;;;;;;5017801;28;20268;-64
2022/06/05 15:47:54;;;;;;;;;;;;;;;;;;5018156;28;19922;-64
2022/06/05 15:50:21;;;;;;;;;;;;;;;;;;5017542;28;19932;-64
2022/06/05 15:52:47;;;;;;;;;;;;;;;;;;5017851;28;20294;-64
2022/06/05 15:55:15;;;;;;;;;;;;;;;;;;5018124;28;19925;-64
2022/06/05 16:00:26;;;;;;;;;;;;;;;;;;5018218;28;20268;-64
2022/06/05 16:02:52;;;;;;;;;;;;;;;;;;5017840;28;19925;-64
2022/06/05 16:05:18;;;;;;;;;;;;;;;;;;5017040;28;19975;-64
2022/06/05 16:07:44;;;;;;;;;;;;;;;;;;5017384;28;20547;-64
2022/06/05 16:10:10;;;;;;;;;;;;;;;;;;5017742;28;20013;-64
2022/06/05 16:12:37;;;;;;;;;;;;;;;;;;5017034;28;19929;-64
2022/06/05 16:15:04;;;;;;;;;;;;;;;;;;5017276;28;19921;-64
2022/06/05 16:17:29;;;;;;;;;;;;;;;;;;5017445;28;19941;-64
2022/06/05 16:19:55;;;;;;;;;;;;;;;;;;5016974;28;19932;-64
2022/06/05 16:22:21;;;;;;;;;;;;;;;;;;5017352;28;19921;-64
2022/06/05 16:24:47;;;;;;;;;;;;;;;;;;5017652;28;19928;-64
2022/06/05 16:27:14;;;;;;;;;;;;;;;;;;5032730;28;19952;-64
2022/06/05 16:29:40;;;;;;;;;;;;;;;;;;5036993;28;19925;-64
2022/06/05 16:32:06;;;;;;;;;;;;;;;;;;5036978;28;19929;-64
2022/06/05 16:34:32;;;;;;;;;;;;;;;;;;5035740;28;19987;-64
2022/06/05 16:39:43;;;;;;;;;;;;;;;;;;5035947;28;20283;-64
2022/06/05 16:42:09;;;;;;;;;;;;;;;;;;5035896;28;19932;-64
2022/06/05 16:44:35;;;;;;;;;;;;;;;;;;5036377;28;19921;-64
2022/06/05 16:47:02;;;;;;;;;;;;;;;;;;5036627;28;19921;-64
2022/06/05 16:49:29;;;;;;;;;;;;;;;;;;5036127;28;19925;-64
2022/06/05 16:51:55;;;;;;;;;;;;;;;;;;5036337;28;20024;-64
2022/06/05 16:54:21;;;;;;;;;;;;;;;;;;5036320;28;19960;-64
2022/06/05 16:56:47;;;;;;;;;;;;;;;;;;5035699;28;20003;-64
2022/06/05 16:59:13;;;;;;;;;;;;;;;;;;5036195;28;20051;-64
2022/06/05 17:01:39;;;;;;;;;;;;;;;;;;5036089;28;20337;-64
2022/06/05 17:04:05;;;;;;;;;;;;;;;;;;5035492;28;19921;-64